createdAt,value
2019-05-17T00:00:51.024Z,11.00
2019-05-17T00:03:20.386Z,11.10
2019-05-17T00:05:49.845Z,11.10
2019-05-17T00:08:31.160Z,11.20
2019-05-17T00:11:09.624Z,11.20
2019-05-17T00:13:51.537Z,11.20
2019-05-17T00:16:33.198Z,11.20
2019-05-17T00:19:16.738Z,11.20
2019-05-17T00:21:58.293Z,11.20
2019-05-17T00:24:39.469Z,11.20
2019-05-17T00:27:21.632Z,11.20
2019-05-17T00:30:03.627Z,11.30
2019-05-17T00:32:47.521Z,11.20
2019-05-17T00:35:28.554Z,11.20
2019-05-17T00:38:10.281Z,11.10
2019-05-17T00:40:52.093Z,11.10
2019-05-17T00:43:33.460Z,11.10
2019-05-17T00:46:17.603Z,11.10
2019-05-17T00:48:59.674Z,11.20
2019-05-17T00:51:41.497Z,11.30
2019-05-17T00:54:24.236Z,11.30
2019-05-17T00:57:07.546Z,11.20
2019-05-17T00:59:48.834Z,11.20
2019-05-17T01:02:30.579Z,11.20
2019-05-17T01:05:12.184Z,11.30
2019-05-17T01:07:54.030Z,11.20
2019-05-17T01:10:36.895Z,11.20
2019-05-17T01:13:18.364Z,11.20
2019-05-17T01:15:59.995Z,11.10
2019-05-17T01:18:41.562Z,11.20
2019-05-17T01:21:22.709Z,11.10
2019-05-17T01:24:03.861Z,11.10
2019-05-17T01:26:46.880Z,11.10
2019-05-17T01:29:29.049Z,11.20
2019-05-17T01:32:11.123Z,11.20
2019-05-17T01:34:52.856Z,11.20
2019-05-17T01:37:36.745Z,11.20
2019-05-17T01:40:17.704Z,11.20
2019-05-17T01:42:58.187Z,11.10
2019-05-17T01:45:48.082Z,11.10
2019-05-17T01:48:49.317Z,11.00
2019-05-17T01:51:31.315Z,11.10
2019-05-17T01:54:12.520Z,11.10
2019-05-17T01:56:52.197Z,11.00
2019-05-17T01:59:40.914Z,11.00
2019-05-17T02:02:41.482Z,11.00
2019-05-17T02:08:06.424Z,11.10
2019-05-17T02:10:46.744Z,11.10
2019-05-17T02:13:28.038Z,11.10
2019-05-17T02:16:09.674Z,11.10
2019-05-17T02:18:51.036Z,11.10
2019-05-17T02:21:35.659Z,11.10
2019-05-17T02:24:17.049Z,11.10
2019-05-17T02:26:58.320Z,11.00
2019-05-17T02:29:42.357Z,11.10
2019-05-17T02:32:23.552Z,11.10
2019-05-17T02:35:07.754Z,11.10
2019-05-17T02:37:49.139Z,11.10
2019-05-17T02:40:34.198Z,11.10
2019-05-17T02:43:14.465Z,11.00
2019-05-17T02:45:56.074Z,11.00
2019-05-17T02:48:37.228Z,11.00
2019-05-17T02:51:18.562Z,11.00
2019-05-17T02:53:59.789Z,11.00
2019-05-17T02:56:43.675Z,11.10
2019-05-17T02:59:23.281Z,11.10
2019-05-17T03:02:12.799Z,11.10
2019-05-17T03:05:14.563Z,11.10
2019-05-17T03:07:56.438Z,11.10
2019-05-17T03:13:18.944Z,11.10
2019-05-17T03:16:03.410Z,11.10
2019-05-17T03:18:44.077Z,11.10
2019-05-17T03:21:25.726Z,11.10
2019-05-17T03:24:07.714Z,11.00
2019-05-17T03:26:52.547Z,11.10
2019-05-17T03:29:33.503Z,11.10
2019-05-17T03:32:26.452Z,11.10
2019-05-17T03:35:26.698Z,11.10
2019-05-17T03:38:07.439Z,11.10
2019-05-17T03:41:16.988Z,11.10
2019-05-17T03:43:35.223Z,11.10
2019-05-17T03:46:15.502Z,11.10
2019-05-17T03:48:57.397Z,11.00
2019-05-17T03:51:42.364Z,11.00
2019-05-17T03:54:22.639Z,11.00
2019-05-17T03:57:04.914Z,10.90
2019-05-17T03:59:46.651Z,10.90
2019-05-17T04:02:28.870Z,10.90
2019-05-17T04:05:12.614Z,10.90
2019-05-17T04:07:54.065Z,11.00
2019-05-17T04:10:35.812Z,11.00
2019-05-17T04:13:17.921Z,11.00
2019-05-17T04:15:59.204Z,11.00
2019-05-17T04:18:43.582Z,11.00
2019-05-17T04:21:23.839Z,11.00
2019-05-17T04:24:05.961Z,11.00
2019-05-17T04:26:47.742Z,11.00
2019-05-17T04:29:28.992Z,11.00
2019-05-17T04:32:12.959Z,11.00
2019-05-17T04:34:54.088Z,11.10
2019-05-17T04:37:38.443Z,11.10
2019-05-17T04:40:19.121Z,11.10
2019-05-17T04:43:03.401Z,11.10
2019-05-17T04:48:53.925Z,11.20
2019-05-17T04:51:52.377Z,11.20
2019-05-17T04:54:38.112Z,11.20
2019-05-17T04:57:22.939Z,11.30
2019-05-17T05:00:04.367Z,11.20
2019-05-17T05:02:45.668Z,11.20
2019-05-17T05:05:33.040Z,11.20
2019-05-17T05:08:17.969Z,11.30
2019-05-17T05:10:59.257Z,11.30
2019-05-17T05:13:42.628Z,11.30
2019-05-17T05:16:23.703Z,11.40
2019-05-17T05:19:05.735Z,11.40
2019-05-17T05:21:47.739Z,11.30
2019-05-17T05:24:31.549Z,11.30
2019-05-17T05:27:12.883Z,11.30
2019-05-17T05:29:54.956Z,11.30
2019-05-17T05:32:42.551Z,11.40
2019-05-17T05:35:42.207Z,11.40
2019-05-17T05:38:26.786Z,11.40
2019-05-17T05:41:08.747Z,11.40
2019-05-17T05:43:52.597Z,11.40
2019-05-17T05:46:22.800Z,11.50
2019-05-17T05:49:12.441Z,11.50
2019-05-17T05:52:13.817Z,11.50
2019-05-17T05:57:45.388Z,11.50
2019-05-17T06:00:34.117Z,11.50
2019-05-17T06:03:19.229Z,11.50
2019-05-17T06:06:02.963Z,11.50
2019-05-17T06:08:44.910Z,11.60
2019-05-17T06:14:08.680Z,11.60
2019-05-17T06:16:52.041Z,11.60
2019-05-17T06:19:32.741Z,11.70
2019-05-17T06:22:14.572Z,11.70
2019-05-17T06:24:57.785Z,11.70
2019-05-17T06:27:41.363Z,11.70
2019-05-17T06:30:23.325Z,11.70
2019-05-17T06:33:06.428Z,11.80
2019-05-17T06:35:47.833Z,11.80
2019-05-17T06:38:17.199Z,11.80
2019-05-17T06:44:13.796Z,11.80
2019-05-17T06:46:55.080Z,11.80
2019-05-17T06:49:24.444Z,11.80
2019-05-17T06:52:13.175Z,11.80
2019-05-17T06:54:54.949Z,11.80
2019-05-17T06:57:36.415Z,11.80
2019-05-17T07:03:29.356Z,11.90
2019-05-17T07:06:21.593Z,11.90
2019-05-17T07:09:04.674Z,11.90
2019-05-17T07:11:46.636Z,12.00
2019-05-17T07:14:29.488Z,12.00
2019-05-17T07:17:11.126Z,12.00
2019-05-17T07:19:53.365Z,12.00
2019-05-17T07:22:35.389Z,12.10
2019-05-17T07:25:19.636Z,12.10
2019-05-17T07:28:00.603Z,12.20
2019-05-17T07:30:42.695Z,12.20
2019-05-17T07:33:23.805Z,12.20
2019-05-17T07:36:05.588Z,12.20
2019-05-17T07:38:47.466Z,12.30
2019-05-17T07:41:29.878Z,12.40
2019-05-17T07:44:11.731Z,12.50
2019-05-17T07:46:55.114Z,12.60
2019-05-17T07:49:36.411Z,12.60
2019-05-17T07:52:20.496Z,12.70
2019-05-17T07:55:02.602Z,12.80
2019-05-17T07:57:44.387Z,12.80
2019-05-17T08:00:26.213Z,13.00
2019-05-17T08:03:12.130Z,13.00
2019-05-17T08:05:50.617Z,13.00
2019-05-17T08:08:32.208Z,13.00
2019-05-17T08:11:14.250Z,13.00
2019-05-17T08:13:55.408Z,13.00
2019-05-17T08:16:39.368Z,13.20
2019-05-17T08:19:20.524Z,13.30
2019-05-17T08:22:06.049Z,13.40
2019-05-17T08:24:49.882Z,13.50
2019-05-17T08:27:31.585Z,13.50
2019-05-17T08:30:11.451Z,13.70
2019-05-17T08:33:03.277Z,13.80
2019-05-17T08:35:44.844Z,14.00
2019-05-17T08:38:26.092Z,14.20
2019-05-17T08:41:10.323Z,14.30
2019-05-17T08:43:51.506Z,14.30
2019-05-17T08:46:32.949Z,14.40
2019-05-17T08:49:14.929Z,14.20
2019-05-17T08:51:59.342Z,14.60
2019-05-17T08:54:42.650Z,15.00
2019-05-17T08:57:24.434Z,15.30
2019-05-17T09:00:06.218Z,15.50
2019-05-17T09:02:49.970Z,15.80
2019-05-17T09:05:31.762Z,16.00
2019-05-17T09:08:13.852Z,16.10
2019-05-17T09:10:55.772Z,16.20
2019-05-17T09:13:36.913Z,16.50
2019-05-17T09:16:19.572Z,17.20
2019-05-17T09:19:01.129Z,17.80
2019-05-17T09:21:43.060Z,18.10
2019-05-17T09:24:24.328Z,18.10
2019-05-17T09:27:05.651Z,17.90
2019-05-17T09:29:49.769Z,18.50
2019-05-17T09:32:31.287Z,19.50
2019-05-17T09:35:12.489Z,19.70
2019-05-17T09:37:54.249Z,19.00
2019-05-17T09:40:35.943Z,18.70
2019-05-17T09:43:20.558Z,18.60
2019-05-17T09:46:02.155Z,18.70
2019-05-17T09:48:41.775Z,18.80
2019-05-17T09:51:30.521Z,18.90
2019-05-17T09:54:00.193Z,18.70
2019-05-17T09:56:56.124Z,18.60
2019-05-17T09:59:37.430Z,19.10
2019-05-17T10:02:20.316Z,19.50
2019-05-17T10:05:01.817Z,19.70
2019-05-17T10:07:43.420Z,19.80
2019-05-17T10:10:25.017Z,20.00
2019-05-17T10:13:09.544Z,20.10
2019-05-17T10:15:50.213Z,20.50
2019-05-17T10:18:33.673Z,20.50
2019-05-17T10:21:03.049Z,20.80
2019-05-17T10:23:51.805Z,20.80
2019-05-17T10:26:33.899Z,21.30
2019-05-17T10:29:15.808Z,21.20
2019-05-17T10:31:55.510Z,20.10
2019-05-17T10:34:44.308Z,20.00
2019-05-17T10:37:25.572Z,19.90
2019-05-17T10:40:09.867Z,20.30
2019-05-17T10:42:51.046Z,20.60
2019-05-17T10:45:33.106Z,20.90
2019-05-17T10:48:14.290Z,21.10
2019-05-17T10:50:56.348Z,20.80
2019-05-17T10:53:40.267Z,21.10
2019-05-17T10:56:23.480Z,21.50
2019-05-17T10:59:05.358Z,21.70
2019-05-17T11:01:50.169Z,22.20
2019-05-17T11:04:31.329Z,21.90
2019-05-17T11:07:00.729Z,21.40
2019-05-17T11:09:50.954Z,21.30
2019-05-17T11:12:52.296Z,21.70
2019-05-17T11:15:34.228Z,22.20
2019-05-17T11:18:16.300Z,22.60
2019-05-17T11:20:57.884Z,23.00
2019-05-17T11:23:39.546Z,23.80
2019-05-17T11:26:21.043Z,23.90
2019-05-17T11:29:02.320Z,23.60
2019-05-17T11:31:44.141Z,24.50
2019-05-17T11:34:25.943Z,24.30
2019-05-17T11:37:07.809Z,23.20
2019-05-17T11:39:49.823Z,24.10
2019-05-17T11:42:31.098Z,24.60
2019-05-17T11:45:26.666Z,25.50
2019-05-17T11:47:55.559Z,25.20
2019-05-17T11:50:37.699Z,23.80
2019-05-17T11:53:19.403Z,22.40
2019-05-17T11:56:01.334Z,21.60
2019-05-17T11:58:43.183Z,21.20
2019-05-17T12:01:24.523Z,21.00
2019-05-17T12:04:06.425Z,21.00
2019-05-17T12:06:50.662Z,20.80
2019-05-17T12:09:37.204Z,20.30
2019-05-17T12:12:15.563Z,19.90
2019-05-17T12:14:55.322Z,19.80
2019-05-17T12:17:44.716Z,19.80
2019-05-17T12:24:00.305Z,19.60
2019-05-17T12:26:42.419Z,19.70
2019-05-17T12:29:24.272Z,19.90
2019-05-17T12:32:05.707Z,20.10
2019-05-17T12:34:47.430Z,20.40
2019-05-17T12:37:29.143Z,20.50
2019-05-17T12:40:10.894Z,20.90
2019-05-17T12:42:53.579Z,21.40
2019-05-17T12:45:33.389Z,22.00
2019-05-17T12:48:22.102Z,22.00
2019-05-17T12:51:04.277Z,21.80
2019-05-17T12:56:33.645Z,22.10
2019-05-17T12:59:36.807Z,22.40
2019-05-17T13:02:17.994Z,22.20
2019-05-17T13:04:59.571Z,21.80
2019-05-17T13:07:41.432Z,21.40
2019-05-17T13:10:22.819Z,21.50
2019-05-17T13:13:09.490Z,21.60
2019-05-17T13:15:51.295Z,21.40
2019-05-17T13:18:32.940Z,21.60
2019-05-17T13:21:14.681Z,22.30
2019-05-17T13:23:56.351Z,23.30
2019-05-17T13:26:39.322Z,24.20
2019-05-17T13:29:20.727Z,26.00
2019-05-17T13:32:02.807Z,27.50
2019-05-17T13:34:44.789Z,28.80
2019-05-17T13:37:26.842Z,29.90
2019-05-17T13:40:09.121Z,32.10
2019-05-17T13:42:51.421Z,32.10
2019-05-17T13:45:34.060Z,32.30
2019-05-17T13:48:16.659Z,31.70
2019-05-17T13:50:58.739Z,31.30
2019-05-17T13:53:40.677Z,31.60
2019-05-17T13:56:22.535Z,32.30
2019-05-17T13:59:04.401Z,32.30
2019-05-17T14:01:49.623Z,33.60
2019-05-17T14:04:31.957Z,34.50
2019-05-17T14:07:14.120Z,34.90
2019-05-17T14:09:55.987Z,35.60
2019-05-17T14:15:20.437Z,35.20
2019-05-17T14:18:02.127Z,34.50
2019-05-17T14:20:44.011Z,32.60
2019-05-17T14:23:26.498Z,30.70
2019-05-17T14:26:08.465Z,30.40
2019-05-17T14:28:54.840Z,31.10
2019-05-17T14:31:36.574Z,33.20
2019-05-17T14:34:18.365Z,34.70
2019-05-17T14:37:00.120Z,34.40
2019-05-17T14:39:42.206Z,32.10
2019-05-17T14:42:24.068Z,31.40
2019-05-17T14:45:05.938Z,31.40
2019-05-17T14:47:47.696Z,31.60
2019-05-17T14:50:30.308Z,31.20
2019-05-17T14:53:12.963Z,32.00
2019-05-17T14:55:54.873Z,33.20
2019-05-17T14:58:36.705Z,34.30
2019-05-17T15:01:19.059Z,34.60
2019-05-17T15:04:01.644Z,35.50
2019-05-17T15:06:43.396Z,35.90
2019-05-17T15:09:26.269Z,36.40
2019-05-17T15:12:08.993Z,36.00
2019-05-17T15:14:50.774Z,35.80
2019-05-17T15:17:35.236Z,35.70
2019-05-17T15:20:15.936Z,34.20
2019-05-17T15:25:39.450Z,34.00
2019-05-17T15:28:21.442Z,33.60
2019-05-17T15:31:04.138Z,33.00
2019-05-17T15:33:46.728Z,32.80
2019-05-17T15:36:28.789Z,33.10
2019-05-17T15:39:11.635Z,33.80
2019-05-17T15:41:53.623Z,34.70
2019-05-17T15:44:35.723Z,35.30
2019-05-17T15:47:17.798Z,35.30
2019-05-17T15:50:00.492Z,36.10
2019-05-17T15:52:43.223Z,36.30
2019-05-17T15:55:25.229Z,36.00
2019-05-17T15:58:07.134Z,36.00
2019-05-17T16:00:49.571Z,36.20
2019-05-17T16:03:32.092Z,35.80
2019-05-17T16:06:14.642Z,35.30
2019-05-17T16:08:56.593Z,34.60
2019-05-17T16:11:38.613Z,34.20
2019-05-17T16:14:21.346Z,34.20
2019-05-17T16:17:03.426Z,34.60
2019-05-17T16:19:45.908Z,34.70
2019-05-17T16:22:28.584Z,34.70
2019-05-17T16:25:10.676Z,34.00
2019-05-17T16:27:52.265Z,33.80
2019-05-17T16:30:34.413Z,33.80
2019-05-17T16:33:16.195Z,33.70
2019-05-17T16:35:58.784Z,33.20
2019-05-17T16:38:41.275Z,33.00
2019-05-17T16:41:23.186Z,31.80
2019-05-17T16:44:05.052Z,31.60
2019-05-17T16:46:47.246Z,31.30
2019-05-17T16:49:28.945Z,31.10
2019-05-17T16:52:12.673Z,30.90
2019-05-17T16:54:57.245Z,31.50
2019-05-17T16:57:39.151Z,32.00
2019-05-17T17:00:21.217Z,32.10
2019-05-17T17:03:03.312Z,32.00
2019-05-17T17:05:45.943Z,31.50
2019-05-17T17:08:28.135Z,31.80
2019-05-17T17:11:10.105Z,31.30
2019-05-17T17:13:52.168Z,29.40
2019-05-17T17:16:33.917Z,27.70
2019-05-17T17:19:15.930Z,26.40
2019-05-17T17:21:57.489Z,25.30
2019-05-17T17:24:38.792Z,24.90
2019-05-17T17:27:20.020Z,24.50
2019-05-17T17:30:01.308Z,24.20
2019-05-17T17:32:42.483Z,23.70
2019-05-17T17:35:24.253Z,23.40
2019-05-17T17:38:07.690Z,23.00
2019-05-17T17:40:49.637Z,22.60
2019-05-17T17:43:31.384Z,22.30
2019-05-17T17:46:13.156Z,22.10
2019-05-17T17:48:55.142Z,21.90
2019-05-17T17:51:37.117Z,21.70
2019-05-17T17:54:18.469Z,21.50
2019-05-17T17:57:00.418Z,21.40
2019-05-17T17:59:42.146Z,21.10
2019-05-17T18:02:24.177Z,21.00
2019-05-17T18:05:06.311Z,20.90
2019-05-17T18:07:48.200Z,20.80
2019-05-17T18:10:30.240Z,20.80
2019-05-17T18:13:12.202Z,20.60
2019-05-17T18:15:54.241Z,20.60
2019-05-17T18:18:36.538Z,20.50
2019-05-17T18:21:18.720Z,20.40
2019-05-17T18:24:00.677Z,20.20
2019-05-17T18:26:42.520Z,20.10
2019-05-17T18:29:24.384Z,20.00
2019-05-17T18:32:06.419Z,19.80
2019-05-17T18:34:48.010Z,19.70
2019-05-17T18:37:30.058Z,19.60
2019-05-17T18:40:11.797Z,19.50
2019-05-17T18:42:53.492Z,19.40
2019-05-17T18:45:35.479Z,19.30
2019-05-17T18:48:17.159Z,19.20
2019-05-17T18:50:59.074Z,19.10
2019-05-17T18:53:40.870Z,19.00
2019-05-17T18:56:24.993Z,19.00
2019-05-17T18:59:06.762Z,18.90
2019-05-17T19:01:48.032Z,18.90
2019-05-17T19:04:29.891Z,18.80
2019-05-17T19:07:11.983Z,18.80
2019-05-17T19:09:54.023Z,18.70
2019-05-17T19:12:33.788Z,18.70
2019-05-17T19:15:22.664Z,18.60
2019-05-17T19:18:04.189Z,18.60
2019-05-17T19:20:46.164Z,18.50
2019-05-17T19:23:27.841Z,18.50
2019-05-17T19:26:09.436Z,18.40
2019-05-17T19:28:51.579Z,18.40
2019-05-17T19:31:33.947Z,18.30
2019-05-17T19:34:15.762Z,18.20
2019-05-17T19:36:56.992Z,18.10
2019-05-17T19:39:38.530Z,17.90
2019-05-17T19:42:23.180Z,17.90
2019-05-17T19:45:04.203Z,17.90
2019-05-17T19:47:45.874Z,17.80
2019-05-17T19:50:27.263Z,17.70
2019-05-17T19:53:09.170Z,17.70
2019-05-17T19:55:51.238Z,17.70
2019-05-17T19:58:32.926Z,17.50
2019-05-17T20:01:14.295Z,17.40
2019-05-17T20:03:56.226Z,17.30
2019-05-17T20:06:38.339Z,17.20
2019-05-17T20:09:19.623Z,17.10
2019-05-17T20:12:01.484Z,17.00
2019-05-17T20:14:43.520Z,16.90
2019-05-17T20:17:25.088Z,16.80
2019-05-17T20:20:06.553Z,16.80
2019-05-17T20:22:48.582Z,16.70
2019-05-17T20:25:30.425Z,16.70
2019-05-17T20:28:11.823Z,16.60
2019-05-17T20:30:52.996Z,16.60
2019-05-17T20:33:34.545Z,16.50
2019-05-17T20:36:16.457Z,16.40
2019-05-17T20:38:58.219Z,16.30
2019-05-17T20:41:40.080Z,16.30
2019-05-17T20:44:22.528Z,16.30
2019-05-17T20:47:04.019Z,16.30
2019-05-17T20:49:45.703Z,16.20
2019-05-17T20:52:27.341Z,16.10
2019-05-17T20:55:08.831Z,16.10
2019-05-17T20:57:49.950Z,16.10
2019-05-17T21:00:31.716Z,16.20
2019-05-17T21:03:14.055Z,16.20
2019-05-17T21:05:55.623Z,16.30
2019-05-17T21:08:45.740Z,16.30
2019-05-17T21:11:21.317Z,16.20
2019-05-17T21:14:03.096Z,16.10
2019-05-17T21:16:44.246Z,16.10
2019-05-17T21:19:27.139Z,16.00
2019-05-17T21:22:08.484Z,16.00
2019-05-17T21:24:49.936Z,15.90
2019-05-17T21:27:31.670Z,16.00
2019-05-17T21:30:13.638Z,15.90
2019-05-17T21:32:54.870Z,15.80
2019-05-17T21:35:24.297Z,15.60
2019-05-17T21:37:53.665Z,15.50
2019-05-17T21:40:35.528Z,15.50
2019-05-17T21:43:17.072Z,15.40
2019-05-17T21:46:04.170Z,15.30
2019-05-17T21:48:44.902Z,15.30
2019-05-17T21:51:26.267Z,15.20
2019-05-17T21:54:08.237Z,15.20
2019-05-17T21:56:49.354Z,14.90
2019-05-17T21:59:31.321Z,14.80
2019-05-17T22:02:13.401Z,14.70
2019-05-17T22:04:54.722Z,14.70
2019-05-17T22:07:36.720Z,14.70
2019-05-17T22:10:18.500Z,14.70
2019-05-17T22:13:00.390Z,14.70
2019-05-17T22:15:41.733Z,14.60
2019-05-17T22:18:23.020Z,14.60
2019-05-17T22:21:04.120Z,14.60
2019-05-17T22:23:46.121Z,14.60
2019-05-17T22:26:27.877Z,14.60
2019-05-17T22:29:10.568Z,14.50
2019-05-17T22:31:52.289Z,14.50
2019-05-17T22:34:34.182Z,14.40
2019-05-17T22:37:17.686Z,14.30
2019-05-17T22:39:58.965Z,14.10
2019-05-17T22:42:40.332Z,14.00
2019-05-17T22:45:22.408Z,14.00
2019-05-17T22:48:03.556Z,14.00
2019-05-17T22:50:44.764Z,14.00
2019-05-17T22:53:25.901Z,13.90
2019-05-17T22:56:07.356Z,13.90
2019-05-17T22:58:49.265Z,13.90
2019-05-17T23:01:30.612Z,13.80
2019-05-17T23:04:11.805Z,13.80
2019-05-17T23:06:53.846Z,13.90
2019-05-17T23:09:35.796Z,13.90
2019-05-17T23:12:17.527Z,13.80
2019-05-17T23:14:59.506Z,13.90
2019-05-17T23:17:41.423Z,13.80
2019-05-17T23:20:22.545Z,13.80
2019-05-17T23:23:04.522Z,13.70
2019-05-17T23:25:46.123Z,13.70
2019-05-17T23:28:15.568Z,13.80
2019-05-17T23:30:57.218Z,13.80
2019-05-17T23:33:38.611Z,13.70
2019-05-17T23:36:20.513Z,13.70
2019-05-17T23:39:01.704Z,13.70
2019-05-17T23:41:41.389Z,13.70
2019-05-17T23:44:30.125Z,13.60
2019-05-17T23:47:11.234Z,13.50
2019-05-17T23:49:53.398Z,13.50
2019-05-17T23:52:34.925Z,13.50
2019-05-17T23:55:16.137Z,13.50
2019-05-17T23:57:57.320Z,13.50
